Time;durP1;ratioP1;P1;durP2;ratioP2;P2;SDS_P1;SDS_P2;PMS_P1;PMS_P2;Temp;Humidity;BMP_temperature;BMP_pressure;BME280_temperature;BME280_humidity;BME280_pressure;Samples;Min_cycle;Max_cycle;Signal;HPM_P1;HPM_P2
2021/12/13 00:07:59;;;;;;;1.58;1.33;;;23.00;65.80;;;;;;31540450;28;20079;-50
2021/12/13 00:23:10;;;;;;;0.85;0.68;;;22.90;65.90;;;;;;31619215;28;20049;-48
2021/12/13 00:38:14;;;;;;;0.45;0.40;;;22.90;65.80;;;;;;31602697;28;20044;-44
2021/12/13 00:53:19;;;;;;;0.32;0.32;;;22.80;65.80;;;;;;31595710;28;20135;-44
2021/12/13 01:08:40;;;;;;;1.27;0.35;;;23.20;66.10;;;;;;31570254;28;20048;-38
2021/12/13 01:23:51;;;;;;;0.20;0.20;;;23.40;65.70;;;;;;31531854;28;20048;-39
2021/12/13 01:39:05;;;;;;;0.17;0.17;;;23.20;65.60;;;;;;31629802;28;20041;-42
2021/12/13 01:54:15;;;;;;;0.10;0.10;;;23.10;65.80;;;;;;31611364;28;20077;-40
2021/12/13 02:09:19;;;;;;;0.10;0.10;;;23.00;65.70;;;;;;31525337;28;20169;-39
2021/12/13 02:24:22;;;;;;;0.25;0.20;;;23.00;66.10;;;;;;31602474;28;20076;-47
2021/12/13 02:39:41;;;;;;;0.15;0.10;;;22.90;65.70;;;;;;31527151;28;20119;-49
2021/12/13 02:54:48;;;;;;;0.10;0.10;;;22.90;65.90;;;;;;31594294;28;20090;-45
2021/12/13 03:09:53;;;;;;;0.10;0.10;;;22.80;66.30;;;;;;31582515;28;20101;-46
2021/12/13 03:25:02;;;;;;;0.10;0.10;;;22.80;66.60;;;;;;31548481;28;20059;-45
2021/12/13 03:40:19;;;;;;;1.50;0.10;;;23.30;67.20;;;;;;31598349;28;20051;-41
2021/12/13 03:55:23;;;;;;;0.10;0.10;;;23.40;66.80;;;;;;31567461;28;20096;-46
2021/12/13 04:10:47;;;;;;;1.88;0.10;;;23.20;66.70;;;;;;31553204;28;20044;-41
2021/12/13 04:25:50;;;;;;;0.10;0.10;;;23.00;66.90;;;;;;31546470;28;20091;-43
2021/12/13 04:40:54;;;;;;;0.10;0.10;;;23.00;67.00;;;;;;31510246;28;20100;-42
2021/12/13 04:56:01;;;;;;;0.10;0.10;;;23.00;67.00;;;;;;31508408;28;20052;-48
2021/12/13 05:11:06;;;;;;;0.08;0.08;;;22.90;66.80;;;;;;31557490;28;20095;-44
2021/12/13 05:26:08;;;;;;;1.55;0.10;;;22.90;66.80;;;;;;31538218;28;20057;-47
2021/12/13 05:41:26;;;;;;;0.28;0.10;;;22.90;66.90;;;;;;31553490;28;20040;-48
2021/12/13 05:56:38;;;;;;;8.98;1.10;;;23.00;67.10;;;;;;31581733;28;20052;-58
2021/12/13 06:11:43;;;;;;;23.33;15.13;;;23.30;66.30;;;;;;31624243;28;20068;-55
2021/12/13 06:26:45;;;;;;;77.80;60.30;;;22.90;61.60;;;;;;31614205;28;20143;-62
2021/12/13 06:41:58;;;;;;;44.17;36.58;;;22.30;53.60;;;;;;31552727;28;20523;-62
2021/12/13 06:57:10;;;;;;;29.33;22.48;;;22.30;55.20;;;;;;31582239;28;20457;-49
2021/12/13 07:12:16;;;;;;;136.30;107.20;;;22.50;53.80;;;;;;31568897;28;20505;-58
2021/12/13 07:27:18;;;;;;;72.45;55.78;;;22.40;50.50;;;;;;31622566;28;20081;-61
2021/12/13 07:42:20;;;;;;;54.13;42.75;;;22.70;50.40;;;;;;31587439;28;20071;-61
2021/12/13 07:57:28;;;;;;;40.13;32.78;;;22.90;50.40;;;;;;31552074;28;20040;-59
2021/12/13 08:12:46;;;;;;;31.45;24.65;;;22.90;51.90;;;;;;31568351;28;20044;-59
2021/12/13 08:27:55;;;;;;;26.90;21.60;;;22.70;51.40;;;;;;31577616;28;20051;-59
2021/12/13 08:42:59;;;;;;;63.67;48.88;;;22.80;52.80;;;;;;31625003;28;20056;-56
2021/12/13 08:58:17;;;;;;;51.00;39.88;;;22.60;52.90;;;;;;31678926;28;20151;-53
2021/12/13 09:13:57;;;;;;;47.38;40.33;;;22.70;54.30;;;;;;31743993;28;20040;-54
2021/12/13 09:29:06;;;;;;;78.57;54.17;;;22.60;55.20;;;;;;31615060;28;20048;-60
2021/12/13 09:44:08;;;;;;;;;;;22.80;55.20;;;;;;31573696;28;20101;-54
2021/12/13 09:59:35;;;;;;;57.83;45.05;;;23.10;55.20;;;;;;31543774;28;19956;-60
2021/12/13 10:14:42;;;;;;;47.00;37.75;;;23.00;55.90;;;;;;31543135;28;20081;-54
2021/12/13 10:29:49;;;;;;;44.35;36.20;;;23.00;56.30;;;;;;31569669;28;20112;-50
2021/12/13 10:44:52;;;;;;;38.45;32.53;;;22.90;56.70;;;;;;31666666;28;20052;-54
2021/12/13 10:59:55;;;;;;;35.95;29.38;;;22.80;57.10;;;;;;31553223;28;20095;-54
2021/12/13 11:15:00;;;;;;;34.38;28.23;;;22.70;57.30;;;;;;31578567;28;20041;-54
2021/12/13 11:30:10;;;;;;;47.45;26.92;;;22.70;57.40;;;;;;31664376;28;20064;-55
2021/12/13 11:45:49;;;;;;;27.90;24.60;;;22.60;58.00;;;;;;31642780;28;20041;-52
2021/12/13 12:01:06;;;;;;;29.63;23.23;;;22.80;57.80;;;;;;31599987;28;20040;-51
2021/12/13 12:16:09;;;;;;;26.73;20.80;;;23.10;57.40;;;;;;31670888;28;20048;-54
2021/12/13 12:31:11;;;;;;;22.25;18.85;;;23.00;57.70;;;;;;31557346;28;20409;-52
2021/12/13 12:46:14;;;;;;;20.70;17.15;;;23.00;57.40;;;;;;31511631;28;20131;-54
2021/12/13 13:01:24;;;;;;;17.90;15.55;;;22.90;57.60;;;;;;31615992;28;20045;-54
2021/12/13 13:16:36;;;;;;;17.42;14.65;;;22.70;57.80;;;;;;31630151;28;20052;-52
2021/12/13 13:32:00;;;;;;;15.45;13.48;;;22.80;58.00;;;;;;31618051;28;20061;-61
2021/12/13 13:47:09;;;;;;;16.77;13.18;;;23.10;57.50;;;;;;31669892;28;20194;-59
2021/12/13 14:02:17;;;;;;;15.52;12.15;;;23.10;57.80;;;;;;31646804;28;20051;-61
2021/12/13 14:17:38;;;;;;;13.25;11.32;;;23.00;57.90;;;;;;31534059;28;20045;-61
2021/12/13 14:32:40;;;;;;;14.35;11.30;;;22.90;57.90;;;;;;31569971;28;20061;-61
2021/12/13 14:47:50;;;;;;;13.15;10.85;;;22.80;58.10;;;;;;31573388;28;20135;-61
2021/12/13 15:03:01;;;;;;;11.43;9.90;;;22.70;58.20;;;;;;31619160;28;20069;-61
2021/12/13 15:18:28;;;;;;;11.02;9.45;;;23.00;57.90;;;;;;31557813;28;20070;-49
2021/12/13 15:33:35;;;;;;;12.00;9.63;;;23.20;57.90;;;;;;31570563;28;20071;-53
2021/12/13 16:04:13;;;;;;;12.95;9.10;;;23.10;58.30;;;;;;31561469;28;20041;-58
2021/12/13 16:19:51;;;;;;;12.98;9.35;;;23.00;58.40;;;;;;31283427;28;9999784;-56
2021/12/13 16:34:54;;;;;;;12.07;9.20;;;22.80;56.50;;;;;;31748289;28;20189;-57
2021/12/13 16:49:56;;;;;;;13.15;9.85;;;22.70;57.10;;;;;;31671184;28;20131;-56
2021/12/13 17:05:04;;;;;;;26.73;14.40;;;22.60;57.40;;;;;;31547072;28;20056;-55
2021/12/13 17:20:31;;;;;;;32.30;16.88;;;22.90;57.50;;;;;;31603282;28;20041;-54
2021/12/13 17:35:38;;;;;;;43.08;22.02;;;23.00;56.70;;;;;;31603384;28;20048;-49
2021/12/13 17:50:49;;;;;;;35.90;18.48;;;22.90;55.30;;;;;;31546636;28;20044;-51
2021/12/13 18:05:51;;;;;;;28.30;15.55;;;22.90;55.20;;;;;;31589711;28;20044;-65
2021/12/13 18:21:06;;;;;;;24.83;14.63;;;22.70;52.00;;;;;;31542611;28;20052;-51
2021/12/13 18:36:13;;;;;;;18.23;12.23;;;22.60;51.20;;;;;;31513022;28;20095;-60
2021/12/13 18:51:15;;;;;;;27.20;11.38;;;22.50;51.20;;;;;;31600865;28;20071;-59
2021/12/13 19:06:24;;;;;;;18.60;10.00;;;22.50;53.70;;;;;;31598741;28;20105;-58
2021/12/13 19:21:30;;;;;;;15.60;8.93;;;22.60;55.10;;;;;;31607267;28;20093;-58
2021/12/13 19:36:34;;;;;;;15.73;7.70;;;23.00;55.00;;;;;;31647407;28;20044;-59
2021/12/13 19:51:50;;;;;;;14.48;6.78;;;23.10;55.70;;;;;;31628777;28;20105;-54
2021/12/13 20:07:01;;;;;;;10.77;7.00;;;23.00;56.10;;;;;;31621014;28;20074;-53
2021/12/13 20:22:12;;;;;;;11.32;6.65;;;22.90;56.70;;;;;;31642147;28;20063;-56
2021/12/13 20:37:25;;;;;;;12.05;6.60;;;22.80;57.00;;;;;;31640610;28;20087;-58
2021/12/13 20:52:33;;;;;;;11.70;6.00;;;22.80;57.00;;;;;;31629753;28;20056;-61
2021/12/13 21:07:59;;;;;;;6.40;5.10;;;22.70;57.20;;;;;;31686286;28;20048;-56
2021/12/13 21:23:12;;;;;;;8.05;5.93;;;22.80;58.50;;;;;;31634349;28;20072;-56
2021/12/13 21:53:57;;;;;;;6.15;5.00;;;23.20;58.20;;;;;;31631291;28;20040;-56
2021/12/13 22:09:08;;;;;;;7.07;4.50;;;23.20;58.20;;;;;;31624894;28;20056;-60
2021/12/13 22:24:21;;;;;;;6.95;5.13;;;23.00;57.90;;;;;;31610678;28;20112;-60
2021/12/13 22:39:24;;;;;;;6.03;4.60;;;22.90;58.40;;;;;;31553661;28;20045;-61
2021/12/13 22:54:34;;;;;;;8.45;4.95;;;22.70;58.30;;;;;;31605949;28;20118;-62
2021/12/13 23:09:47;;;;;;;6.30;4.80;;;22.70;58.50;;;;;;31689462;28;20104;-61
2021/12/13 23:24:51;;;;;;;5.40;4.07;;;22.90;59.40;;;;;;31557584;28;20052;-61
2021/12/13 23:55:37;;;;;;;5.55;3.72;;;23.20;58.40;;;;;;31596668;28;20115;-61
